sensor_id;sensor_type;location;lat;lon;timestamp;P1;P2;P0
72307;PMS5003;60257;42.638;23.376;2024-01-25T00:00:35;37.25;33.25;20.00
72307;PMS5003;60257;42.638;23.376;2024-01-25T00:02:36;31.00;29.25;19.00
72307;PMS5003;60257;42.638;23.376;2024-01-25T00:04:36;34.50;30.75;17.50
72307;PMS5003;60257;42.638;23.376;2024-01-25T00:06:36;33.75;31.50;21.25
72307;PMS5003;60257;42.638;23.376;2024-01-25T00:08:37;37.75;34.25;22.00
72307;PMS5003;60257;42.638;23.376;2024-01-25T00:10:37;34.75;34.50;23.25
72307;PMS5003;60257;42.638;23.376;2024-01-25T00:12:38;33.75;30.25;21.75
72307;PMS5003;60257;42.638;23.376;2024-01-25T00:14:38;36.25;35.00;21.50
72307;PMS5003;60257;42.638;23.376;2024-01-25T00:16:42;39.75;37.00;19.75
72307;PMS5003;60257;42.638;23.376;2024-01-25T00:18:42;45.25;39.50;24.75
72307;PMS5003;60257;42.638;23.376;2024-01-25T00:20:43;50.50;39.50;25.25
72307;PMS5003;60257;42.638;23.376;2024-01-25T00:22:43;41.25;37.00;23.75
72307;PMS5003;60257;42.638;23.376;2024-01-25T00:24:44;32.00;30.25;18.75
72307;PMS5003;60257;42.638;23.376;2024-01-25T00:26:44;43.75;40.25;25.00
72307;PMS5003;60257;42.638;23.376;2024-01-25T00:28:44;46.50;39.50;23.00
72307;PMS5003;60257;42.638;23.376;2024-01-25T00:30:45;44.50;37.25;23.00
72307;PMS5003;60257;42.638;23.376;2024-01-25T00:32:45;37.00;36.50;21.50
72307;PMS5003;60257;42.638;23.376;2024-01-25T00:34:45;43.75;39.50;25.00
72307;PMS5003;60257;42.638;23.376;2024-01-25T00:36:47;39.25;34.25;19.25
72307;PMS5003;60257;42.638;23.376;2024-01-25T00:38:47;41.25;37.75;22.75
72307;PMS5003;60257;42.638;23.376;2024-01-25T00:40:48;35.50;34.75;24.00
72307;PMS5003;60257;42.638;23.376;2024-01-25T00:42:49;41.75;39.25;23.75
72307;PMS5003;60257;42.638;23.376;2024-01-25T00:44:53;44.50;38.75;22.50
72307;PMS5003;60257;42.638;23.376;2024-01-25T00:46:54;40.75;31.75;21.75
72307;PMS5003;60257;42.638;23.376;2024-01-25T00:48:55;40.75;36.50;18.25
72307;PMS5003;60257;42.638;23.376;2024-01-25T00:50:55;23.50;20.50;7.25
72307;PMS5003;60257;42.638;23.376;2024-01-25T00:52:56;33.00;33.00;23.25
72307;PMS5003;60257;42.638;23.376;2024-01-25T00:54:57;39.00;33.75;20.00
72307;PMS5003;60257;42.638;23.376;2024-01-25T00:56:57;40.00;38.00;20.00
72307;PMS5003;60257;42.638;23.376;2024-01-25T00:58:58;40.50;36.75;19.50
72307;PMS5003;60257;42.638;23.376;2024-01-25T01:00:58;44.00;37.75;22.75
72307;PMS5003;60257;42.638;23.376;2024-01-25T01:02:59;41.50;37.50;24.00
72307;PMS5003;60257;42.638;23.376;2024-01-25T01:05:03;37.00;36.50;23.75
72307;PMS5003;60257;42.638;23.376;2024-01-25T01:07:04;40.00;33.25;18.25
72307;PMS5003;60257;42.638;23.376;2024-01-25T01:09:04;47.25;39.50;23.75
72307;PMS5003;60257;42.638;23.376;2024-01-25T01:11:05;41.25;37.25;24.00
72307;PMS5003;60257;42.638;23.376;2024-01-25T01:13:05;35.75;32.75;20.00
72307;PMS5003;60257;42.638;23.376;2024-01-25T01:15:06;32.50;29.25;18.00
72307;PMS5003;60257;42.638;23.376;2024-01-25T01:17:06;32.75;29.25;16.00
72307;PMS5003;60257;42.638;23.376;2024-01-25T01:19:07;36.50;36.25;22.25
72307;PMS5003;60257;42.638;23.376;2024-01-25T01:21:07;43.00;40.25;23.50
72307;PMS5003;60257;42.638;23.376;2024-01-25T01:23:07;46.00;39.75;25.00
72307;PMS5003;60257;42.638;23.376;2024-01-25T01:25:08;40.25;36.75;21.25
72307;PMS5003;60257;42.638;23.376;2024-01-25T01:27:08;43.50;39.00;19.75
72307;PMS5003;60257;42.638;23.376;2024-01-25T01:29:09;44.00;40.25;24.75
72307;PMS5003;60257;42.638;23.376;2024-01-25T01:31:09;56.00;44.00;26.00
72307;PMS5003;60257;42.638;23.376;2024-01-25T01:33:10;50.75;43.00;26.25
72307;PMS5003;60257;42.638;23.376;2024-01-25T01:35:10;53.75;40.75;27.25
72307;PMS5003;60257;42.638;23.376;2024-01-25T01:37:11;46.75;40.75;27.00
72307;PMS5003;60257;42.638;23.376;2024-01-25T01:39:11;41.75;39.00;25.00
72307;PMS5003;60257;42.638;23.376;2024-01-25T01:41:12;51.25;44.25;28.50
72307;PMS5003;60257;42.638;23.376;2024-01-25T01:43:18;43.50;38.00;21.50
72307;PMS5003;60257;42.638;23.376;2024-01-25T01:45:19;55.00;46.00;28.75
72307;PMS5003;60257;42.638;23.376;2024-01-25T01:47:20;48.00;42.50;25.25
72307;PMS5003;60257;42.638;23.376;2024-01-25T01:49:20;57.50;45.25;27.00
72307;PMS5003;60257;42.638;23.376;2024-01-25T01:51:21;39.25;38.25;25.00
72307;PMS5003;60257;42.638;23.376;2024-01-25T01:53:21;48.25;42.50;25.00
72307;PMS5003;60257;42.638;23.376;2024-01-25T01:55:22;48.00;39.50;23.25
72307;PMS5003;60257;42.638;23.376;2024-01-25T01:57:23;48.00;40.75;24.25
72307;PMS5003;60257;42.638;23.376;2024-01-25T01:59:24;61.75;47.50;29.00
72307;PMS5003;60257;42.638;23.376;2024-01-25T02:01:25;49.75;43.75;27.75
72307;PMS5003;60257;42.638;23.376;2024-01-25T02:03:26;56.00;45.00;27.50
72307;PMS5003;60257;42.638;23.376;2024-01-25T02:05:26;51.50;41.75;25.00
72307;PMS5003;60257;42.638;23.376;2024-01-25T02:07:27;51.00;44.00;26.00
72307;PMS5003;60257;42.638;23.376;2024-01-25T02:09:28;43.75;39.75;24.75
72307;PMS5003;60257;42.638;23.376;2024-01-25T02:11:28;43.00;39.50;27.00
72307;PMS5003;60257;42.638;23.376;2024-01-25T02:13:29;43.50;40.25;25.50
72307;PMS5003;60257;42.638;23.376;2024-01-25T02:15:29;53.75;44.50;25.75
72307;PMS5003;60257;42.638;23.376;2024-01-25T02:17:30;45.50;38.75;22.00
72307;PMS5003;60257;42.638;23.376;2024-01-25T02:19:30;49.25;41.25;27.00
72307;PMS5003;60257;42.638;23.376;2024-01-25T02:21:31;52.00;42.00;26.75
72307;PMS5003;60257;42.638;23.376;2024-01-25T02:23:31;54.00;45.00;27.50
72307;PMS5003;60257;42.638;23.376;2024-01-25T02:25:32;42.25;37.00;21.25
72307;PMS5003;60257;42.638;23.376;2024-01-25T02:27:32;43.75;38.25;23.00
72307;PMS5003;60257;42.638;23.376;2024-01-25T02:29:38;44.00;39.25;25.50
72307;PMS5003;60257;42.638;23.376;2024-01-25T02:31:38;36.00;32.00;25.00
72307;PMS5003;60257;42.638;23.376;2024-01-25T02:33:39;40.25;36.50;21.50
72307;PMS5003;60257;42.638;23.376;2024-01-25T02:35:39;41.25;34.75;24.75
72307;PMS5003;60257;42.638;23.376;2024-01-25T02:37:40;44.25;41.00;27.00
72307;PMS5003;60257;42.638;23.376;2024-01-25T02:39:40;35.00;32.00;26.25
72307;PMS5003;60257;42.638;23.376;2024-01-25T02:41:40;45.75;40.25;25.50
72307;PMS5003;60257;42.638;23.376;2024-01-25T02:43:41;52.50;46.50;25.75
72307;PMS5003;60257;42.638;23.376;2024-01-25T02:45:41;54.50;45.50;28.00
72307;PMS5003;60257;42.638;23.376;2024-01-25T02:47:42;43.75;39.00;23.25
72307;PMS5003;60257;42.638;23.376;2024-01-25T02:49:42;40.75;34.50;25.00
72307;PMS5003;60257;42.638;23.376;2024-01-25T02:51:43;53.50;46.25;27.25
72307;PMS5003;60257;42.638;23.376;2024-01-25T02:53:43;53.25;43.00;25.75
72307;PMS5003;60257;42.638;23.376;2024-01-25T02:55:43;56.50;45.75;28.50
72307;PMS5003;60257;42.638;23.376;2024-01-25T02:57:44;43.25;38.25;25.00
72307;PMS5003;60257;42.638;23.376;2024-01-25T02:59:44;57.00;44.00;27.50
72307;PMS5003;60257;42.638;23.376;2024-01-25T03:01:46;51.75;44.25;28.00
72307;PMS5003;60257;42.638;23.376;2024-01-25T03:03:47;53.25;45.25;29.00
72307;PMS5003;60257;42.638;23.376;2024-01-25T03:05:47;55.00;42.75;26.75
72307;PMS5003;60257;42.638;23.376;2024-01-25T03:07:48;60.50;45.75;29.00
72307;PMS5003;60257;42.638;23.376;2024-01-25T03:09:48;52.25;43.75;28.25
72307;PMS5003;60257;42.638;23.376;2024-01-25T03:11:49;47.25;39.75;25.25
72307;PMS5003;60257;42.638;23.376;2024-01-25T03:13:49;48.25;40.75;24.00
72307;PMS5003;60257;42.638;23.376;2024-01-25T03:15:50;55.50;44.75;27.50
72307;PMS5003;60257;42.638;23.376;2024-01-25T03:17:50;44.00;41.50;24.75
72307;PMS5003;60257;42.638;23.376;2024-01-25T03:19:50;23.00;20.33;14.00
72307;PMS5003;60257;42.638;23.376;2024-01-25T03:21:51;6.33;6.00;3.00
72307;PMS5003;60257;42.638;23.376;2024-01-25T03:23:52;2.67;2.67;2.00
72307;PMS5003;60257;42.638;23.376;2024-01-25T03:25:52;1.00;1.00;0.00
72307;PMS5003;60257;42.638;23.376;2024-01-25T03:27:53;3.33;2.67;0.33
72307;PMS5003;60257;42.638;23.376;2024-01-25T03:29:53;1.67;1.67;1.00
72307;PMS5003;60257;42.638;23.376;2024-01-25T03:31:53;0.67;0.67;0.00
72307;PMS5003;60257;42.638;23.376;2024-01-25T03:33:54;1.00;1.00;1.00
72307;PMS5003;60257;42.638;23.376;2024-01-25T03:35:54;1.00;1.00;0.00
72307;PMS5003;60257;42.638;23.376;2024-01-25T03:37:54;2.00;0.67;0.67
72307;PMS5003;60257;42.638;23.376;2024-01-25T03:39:55;1.00;1.00;0.00
72307;PMS5003;60257;42.638;23.376;2024-01-25T03:41:55;1.00;1.00;0.33
72307;PMS5003;60257;42.638;23.376;2024-01-25T03:43:56;2.00;2.00;1.00
72307;PMS5003;60257;42.638;23.376;2024-01-25T03:45:56;4.00;3.00;1.00
72307;PMS5003;60257;42.638;23.376;2024-01-25T03:47:56;1.33;1.33;1.00
72307;PMS5003;60257;42.638;23.376;2024-01-25T03:49:57;3.00;3.00;1.00
72307;PMS5003;60257;42.638;23.376;2024-01-25T03:51:57;2.00;1.00;1.00
72307;PMS5003;60257;42.638;23.376;2024-01-25T03:53:58;1.33;1.33;1.00
72307;PMS5003;60257;42.638;23.376;2024-01-25T03:55:58;2.00;2.00;0.00
72307;PMS5003;60257;42.638;23.376;2024-01-25T03:57:58;2.00;2.00;1.00
72307;PMS5003;60257;42.638;23.376;2024-01-25T03:59:59;4.00;2.33;1.00
72307;PMS5003;60257;42.638;23.376;2024-01-25T04:01:59;3.33;2.00;1.00
72307;PMS5003;60257;42.638;23.376;2024-01-25T04:03:59;2.00;2.00;1.00
72307;PMS5003;60257;42.638;23.376;2024-01-25T04:06:00;1.00;1.00;1.00
72307;PMS5003;60257;42.638;23.376;2024-01-25T04:08:00;2.00;1.00;0.00
72307;PMS5003;60257;42.638;23.376;2024-01-25T04:10:01;2.00;2.00;1.00
72307;PMS5003;60257;42.638;23.376;2024-01-25T04:12:01;1.00;1.00;1.00
72307;PMS5003;60257;42.638;23.376;2024-01-25T04:14:01;2.00;2.00;1.00
72307;PMS5003;60257;42.638;23.376;2024-01-25T04:16:02;2.00;2.00;1.00
72307;PMS5003;60257;42.638;23.376;2024-01-25T04:18:03;1.00;1.00;0.00
72307;PMS5003;60257;42.638;23.376;2024-01-25T04:20:04;3.00;3.00;1.00
72307;PMS5003;60257;42.638;23.376;2024-01-25T04:22:05;1.67;1.67;0.00
72307;PMS5003;60257;42.638;23.376;2024-01-25T04:24:05;2.00;2.00;1.00
72307;PMS5003;60257;42.638;23.376;2024-01-25T04:26:05;0.33;0.33;0.00
72307;PMS5003;60257;42.638;23.376;2024-01-25T04:28:06;2.33;1.33;0.67
72307;PMS5003;60257;42.638;23.376;2024-01-25T04:30:07;2.00;2.00;1.00
72307;PMS5003;60257;42.638;23.376;2024-01-25T04:32:08;3.00;2.00;0.33
72307;PMS5003;60257;42.638;23.376;2024-01-25T04:34:08;2.00;2.00;1.00
72307;PMS5003;60257;42.638;23.376;2024-01-25T04:36:08;3.00;3.00;1.00
72307;PMS5003;60257;42.638;23.376;2024-01-25T04:38:09;4.00;4.00;2.00
72307;PMS5003;60257;42.638;23.376;2024-01-25T04:40:09;2.00;2.00;1.00
72307;PMS5003;60257;42.638;23.376;2024-01-25T04:42:10;4.00;3.33;0.67
72307;PMS5003;60257;42.638;23.376;2024-01-25T04:44:10;2.00;2.00;1.00
72307;PMS5003;60257;42.638;23.376;2024-01-25T04:46:10;3.67;2.33;1.00
72307;PMS5003;60257;42.638;23.376;2024-01-25T04:48:11;2.00;2.00;1.00
72307;PMS5003;60257;42.638;23.376;2024-01-25T04:50:11;5.33;4.00;2.67
72307;PMS5003;60257;42.638;23.376;2024-01-25T04:52:11;4.00;3.00;2.00
72307;PMS5003;60257;42.638;23.376;2024-01-25T04:54:12;4.00;3.00;2.00
72307;PMS5003;60257;42.638;23.376;2024-01-25T04:56:15;5.00;3.33;1.00
72307;PMS5003;60257;42.638;23.376;2024-01-25T04:58:15;5.00;4.00;2.00
72307;PMS5003;60257;42.638;23.376;2024-01-25T05:00:16;3.67;3.00;2.00
72307;PMS5003;60257;42.638;23.376;2024-01-25T05:02:17;6.33;6.33;2.00
72307;PMS5003;60257;42.638;23.376;2024-01-25T05:04:17;7.00;7.00;3.00
72307;PMS5003;60257;42.638;23.376;2024-01-25T05:06:17;8.67;5.00;3.00
72307;PMS5003;60257;42.638;23.376;2024-01-25T05:08:18;7.33;5.67;4.00
72307;PMS5003;60257;42.638;23.376;2024-01-25T05:10:18;7.67;6.33;3.00
72307;PMS5003;60257;42.638;23.376;2024-01-25T05:12:18;9.00;8.33;4.67
72307;PMS5003;60257;42.638;23.376;2024-01-25T05:14:19;2.00;2.00;0.00
72307;PMS5003;60257;42.638;23.376;2024-01-25T05:16:19;6.00;6.00;3.33
72307;PMS5003;60257;42.638;23.376;2024-01-25T05:18:20;9.67;8.00;3.00
72307;PMS5003;60257;42.638;23.376;2024-01-25T05:20:20;7.00;7.00;3.00
72307;PMS5003;60257;42.638;23.376;2024-01-25T05:22:21;6.00;4.00;2.00
72307;PMS5003;60257;42.638;23.376;2024-01-25T05:24:21;7.33;7.33;4.00
72307;PMS5003;60257;42.638;23.376;2024-01-25T05:26:22;9.67;7.00;2.67
72307;PMS5003;60257;42.638;23.376;2024-01-25T05:28:23;4.00;4.00;3.00
72307;PMS5003;60257;42.638;23.376;2024-01-25T05:30:24;8.00;7.00;3.00
72307;PMS5003;60257;42.638;23.376;2024-01-25T05:32:25;4.00;4.00;2.67
72307;PMS5003;60257;42.638;23.376;2024-01-25T05:34:26;3.00;1.67;0.67
72307;PMS5003;60257;42.638;23.376;2024-01-25T05:36:27;2.33;2.33;1.33
72307;PMS5003;60257;42.638;23.376;2024-01-25T05:38:27;8.00;6.33;3.00
72307;PMS5003;60257;42.638;23.376;2024-01-25T05:40:27;3.00;3.00;2.00
72307;PMS5003;60257;42.638;23.376;2024-01-25T05:42:28;7.00;3.67;2.33
72307;PMS5003;60257;42.638;23.376;2024-01-25T05:44:28;5.00;5.00;3.00
72307;PMS5003;60257;42.638;23.376;2024-01-25T05:46:29;4.00;3.33;2.00
72307;PMS5003;60257;42.638;23.376;2024-01-25T05:48:29;4.00;2.33;1.00
72307;PMS5003;60257;42.638;23.376;2024-01-25T05:50:29;4.00;4.00;2.67
72307;PMS5003;60257;42.638;23.376;2024-01-25T05:52:30;7.00;7.00;3.67
72307;PMS5003;60257;42.638;23.376;2024-01-25T05:54:31;3.67;3.00;2.00
72307;PMS5003;60257;42.638;23.376;2024-01-25T05:56:31;3.67;3.67;2.00
72307;PMS5003;60257;42.638;23.376;2024-01-25T05:58:31;7.00;4.00;2.00
72307;PMS5003;60257;42.638;23.376;2024-01-25T06:00:32;3.00;3.00;1.00
72307;PMS5003;60257;42.638;23.376;2024-01-25T06:02:32;4.33;4.33;2.00
72307;PMS5003;60257;42.638;23.376;2024-01-25T06:04:33;5.00;4.67;2.00
72307;PMS5003;60257;42.638;23.376;2024-01-25T06:06:33;3.00;3.00;1.33
72307;PMS5003;60257;42.638;23.376;2024-01-25T06:08:33;3.33;3.33;2.00
72307;PMS5003;60257;42.638;23.376;2024-01-25T06:10:35;8.33;6.33;3.33
72307;PMS5003;60257;42.638;23.376;2024-01-25T06:12:35;3.67;3.00;1.00
72307;PMS5003;60257;42.638;23.376;2024-01-25T06:14:35;4.00;4.00;2.00
72307;PMS5003;60257;42.638;23.376;2024-01-25T06:16:36;6.33;3.67;1.67
72307;PMS5003;60257;42.638;23.376;2024-01-25T06:18:36;3.00;3.00;1.67
72307;PMS5003;60257;42.638;23.376;2024-01-25T06:20:37;5.00;4.00;2.00
72307;PMS5003;60257;42.638;23.376;2024-01-25T06:22:37;5.67;5.67;3.00
72307;PMS5003;60257;42.638;23.376;2024-01-25T06:24:38;6.67;4.33;3.00
72307;PMS5003;60257;42.638;23.376;2024-01-25T06:26:38;9.33;9.33;4.00
72307;PMS5003;60257;42.638;23.376;2024-01-25T06:28:39;4.67;4.67;3.00
72307;PMS5003;60257;42.638;23.376;2024-01-25T06:30:41;5.00;5.00;3.00
72307;PMS5003;60257;42.638;23.376;2024-01-25T06:32:41;4.67;4.67;2.00
72307;PMS5003;60257;42.638;23.376;2024-01-25T06:34:41;8.67;5.67;3.00
72307;PMS5003;60257;42.638;23.376;2024-01-25T06:36:42;7.00;7.00;3.00
72307;PMS5003;60257;42.638;23.376;2024-01-25T06:38:42;6.33;6.33;2.33
72307;PMS5003;60257;42.638;23.376;2024-01-25T06:40:43;3.00;3.00;2.00
72307;PMS5003;60257;42.638;23.376;2024-01-25T06:42:43;4.67;4.67;2.67
72307;PMS5003;60257;42.638;23.376;2024-01-25T06:44:44;5.00;3.67;1.00
72307;PMS5003;60257;42.638;23.376;2024-01-25T06:46:45;6.67;6.67;3.67
72307;PMS5003;60257;42.638;23.376;2024-01-25T06:48:45;7.00;7.00;4.00
72307;PMS5003;60257;42.638;23.376;2024-01-25T06:50:47;7.00;4.33;3.00
72307;PMS5003;60257;42.638;23.376;2024-01-25T06:52:47;6.67;6.67;4.00
72307;PMS5003;60257;42.638;23.376;2024-01-25T06:54:48;5.33;5.00;2.67
72307;PMS5003;60257;42.638;23.376;2024-01-25T06:56:48;5.00;4.33;1.33
72307;PMS5003;60257;42.638;23.376;2024-01-25T06:58:51;8.67;7.00;3.00
72307;PMS5003;60257;42.638;23.376;2024-01-25T07:00:51;13.33;7.67;4.00
72307;PMS5003;60257;42.638;23.376;2024-01-25T07:02:52;10.33;7.67;3.67
72307;PMS5003;60257;42.638;23.376;2024-01-25T07:04:53;10.67;10.67;5.00
72307;PMS5003;60257;42.638;23.376;2024-01-25T07:06:54;3.00;3.00;1.00
72307;PMS5003;60257;42.638;23.376;2024-01-25T07:08:54;7.33;7.33;3.00
72307;PMS5003;60257;42.638;23.376;2024-01-25T07:10:55;5.00;5.00;3.00
72307;PMS5003;60257;42.638;23.376;2024-01-25T07:12:56;7.33;5.67;3.67
72307;PMS5003;60257;42.638;23.376;2024-01-25T07:14:56;10.67;7.00;2.67
72307;PMS5003;60257;42.638;23.376;2024-01-25T07:16:57;11.00;8.00;4.00
72307;PMS5003;60257;42.638;23.376;2024-01-25T07:18:57;7.00;6.33;3.00
72307;PMS5003;60257;42.638;23.376;2024-01-25T07:20:57;7.33;5.00;2.67
72307;PMS5003;60257;42.638;23.376;2024-01-25T07:22:58;9.67;5.00;4.00
72307;PMS5003;60257;42.638;23.376;2024-01-25T07:24:58;5.67;5.00;2.00
72307;PMS5003;60257;42.638;23.376;2024-01-25T07:26:59;5.67;5.33;2.33
72307;PMS5003;60257;42.638;23.376;2024-01-25T07:28:59;10.33;8.00;4.00
72307;PMS5003;60257;42.638;23.376;2024-01-25T07:30:59;9.00;9.00;4.00
72307;PMS5003;60257;42.638;23.376;2024-01-25T07:33:00;9.67;9.33;4.00
72307;PMS5003;60257;42.638;23.376;2024-01-25T07:35:01;10.00;8.67;4.67
72307;PMS5003;60257;42.638;23.376;2024-01-25T07:37:02;8.33;8.33;4.00
72307;PMS5003;60257;42.638;23.376;2024-01-25T07:39:03;10.33;10.00;4.00
72307;PMS5003;60257;42.638;23.376;2024-01-25T07:41:04;7.67;7.67;4.00
72307;PMS5003;60257;42.638;23.376;2024-01-25T07:43:04;9.67;9.67;5.00
72307;PMS5003;60257;42.638;23.376;2024-01-25T07:45:06;14.67;11.67;6.67
72307;PMS5003;60257;42.638;23.376;2024-01-25T07:47:06;12.00;5.33;3.00
72307;PMS5003;60257;42.638;23.376;2024-01-25T07:49:07;8.00;8.00;4.00
72307;PMS5003;60257;42.638;23.376;2024-01-25T07:51:11;14.67;8.00;4.00
72307;PMS5003;60257;42.638;23.376;2024-01-25T07:53:13;10.00;9.00;4.00
72307;PMS5003;60257;42.638;23.376;2024-01-25T07:55:16;5.00;5.00;3.00
72307;PMS5003;60257;42.638;23.376;2024-01-25T07:57:16;5.33;5.33;3.00
72307;PMS5003;60257;42.638;23.376;2024-01-25T07:59:17;6.33;6.33;4.00
72307;PMS5003;60257;42.638;23.376;2024-01-25T08:01:17;4.00;4.00;1.67
72307;PMS5003;60257;42.638;23.376;2024-01-25T08:03:19;8.33;6.33;3.00
72307;PMS5003;60257;42.638;23.376;2024-01-25T08:05:19;7.67;5.67;3.00
72307;PMS5003;60257;42.638;23.376;2024-01-25T08:07:19;7.67;5.67;3.00
72307;PMS5003;60257;42.638;23.376;2024-01-25T08:09:20;8.00;8.00;3.00
72307;PMS5003;60257;42.638;23.376;2024-01-25T08:11:20;8.00;5.33;3.00
72307;PMS5003;60257;42.638;23.376;2024-01-25T08:13:21;3.00;3.00;2.00
72307;PMS5003;60257;42.638;23.376;2024-01-25T08:15:22;10.67;7.00;2.67
72307;PMS5003;60257;42.638;23.376;2024-01-25T08:17:23;9.00;9.00;4.00
72307;PMS5003;60257;42.638;23.376;2024-01-25T08:19:23;8.67;8.67;5.00
72307;PMS5003;60257;42.638;23.376;2024-01-25T08:21:23;9.67;8.00;4.00
72307;PMS5003;60257;42.638;23.376;2024-01-25T08:23:24;9.00;9.00;3.67
72307;PMS5003;60257;42.638;23.376;2024-01-25T08:25:25;12.00;10.67;5.00
72307;PMS5003;60257;42.638;23.376;2024-01-25T08:27:25;11.00;9.67;3.00
72307;PMS5003;60257;42.638;23.376;2024-01-25T08:29:26;13.67;11.00;8.33
72307;PMS5003;60257;42.638;23.376;2024-01-25T08:31:26;2.33;2.33;0.00
72307;PMS5003;60257;42.638;23.376;2024-01-25T08:33:26;9.33;6.00;3.67
72307;PMS5003;60257;42.638;23.376;2024-01-25T08:35:27;8.00;8.00;5.67
72307;PMS5003;60257;42.638;23.376;2024-01-25T08:37:27;14.33;6.67;4.00
72307;PMS5003;60257;42.638;23.376;2024-01-25T08:39:28;12.67;10.00;4.67
72307;PMS5003;60257;42.638;23.376;2024-01-25T08:41:28;9.67;5.67;4.00
72307;PMS5003;60257;42.638;23.376;2024-01-25T08:43:28;5.00;4.00;2.00
72307;PMS5003;60257;42.638;23.376;2024-01-25T08:45:29;10.33;9.67;5.00
72307;PMS5003;60257;42.638;23.376;2024-01-25T08:47:29;10.33;5.67;3.00
72307;PMS5003;60257;42.638;23.376;2024-01-25T08:49:31;10.67;8.33;4.00
72307;PMS5003;60257;42.638;23.376;2024-01-25T08:51:32;11.00;5.33;3.00
72307;PMS5003;60257;42.638;23.376;2024-01-25T08:53:32;7.00;5.00;3.00
72307;PMS5003;60257;42.638;23.376;2024-01-25T08:55:32;14.00;14.00;9.33
72307;PMS5003;60257;42.638;23.376;2024-01-25T08:57:33;4.00;4.00;1.00
72307;PMS5003;60257;42.638;23.376;2024-01-25T08:59:34;9.00;8.00;4.00
72307;PMS5003;60257;42.638;23.376;2024-01-25T09:01:37;9.00;9.00;4.00
72307;PMS5003;60257;42.638;23.376;2024-01-25T09:03:37;10.67;5.67;3.00
72307;PMS5003;60257;42.638;23.376;2024-01-25T09:05:38;8.67;8.00;4.67
72307;PMS5003;60257;42.638;23.376;2024-01-25T09:07:44;10.33;9.00;4.00
72307;PMS5003;60257;42.638;23.376;2024-01-25T09:09:45;6.00;6.00;2.00
72307;PMS5003;60257;42.638;23.376;2024-01-25T09:11:45;11.33;9.00;5.00
72307;PMS5003;60257;42.638;23.376;2024-01-25T09:13:46;7.67;5.33;3.33
72307;PMS5003;60257;42.638;23.376;2024-01-25T09:15:47;9.33;9.00;3.67
72307;PMS5003;60257;42.638;23.376;2024-01-25T09:17:47;9.33;8.00;3.67
72307;PMS5003;60257;42.638;23.376;2024-01-25T09:19:48;5.00;5.00;3.33
72307;PMS5003;60257;42.638;23.376;2024-01-25T09:21:52;6.67;4.67;3.00
72307;PMS5003;60257;42.638;23.376;2024-01-25T09:23:52;15.00;11.00;5.00
72307;PMS5003;60257;42.638;23.376;2024-01-25T09:25:53;9.33;6.67;4.00
72307;PMS5003;60257;42.638;23.376;2024-01-25T09:27:53;8.00;8.00;4.00
72307;PMS5003;60257;42.638;23.376;2024-01-25T09:29:53;9.00;9.00;5.00
72307;PMS5003;60257;42.638;23.376;2024-01-25T09:31:54;12.67;12.67;8.67
72307;PMS5003;60257;42.638;23.376;2024-01-25T09:33:54;10.33;9.00;4.33
72307;PMS5003;60257;42.638;23.376;2024-01-25T09:35:55;9.67;9.67;5.33
72307;PMS5003;60257;42.638;23.376;2024-01-25T09:37:56;10.00;10.00;5.00
72307;PMS5003;60257;42.638;23.376;2024-01-25T09:39:56;2.33;2.33;2.00
72307;PMS5003;60257;42.638;23.376;2024-01-25T09:41:58;11.00;10.00;5.00
72307;PMS5003;60257;42.638;23.376;2024-01-25T09:43:59;10.00;7.33;4.33
72307;PMS5003;60257;42.638;23.376;2024-01-25T09:46:00;10.33;9.00;4.00
72307;PMS5003;60257;42.638;23.376;2024-01-25T09:48:01;6.67;4.00;2.67
72307;PMS5003;60257;42.638;23.376;2024-01-25T09:50:04;5.33;5.33;4.00
72307;PMS5003;60257;42.638;23.376;2024-01-25T09:52:05;13.33;11.33;4.67
72307;PMS5003;60257;42.638;23.376;2024-01-25T09:54:06;10.67;10.33;5.00
72307;PMS5003;60257;42.638;23.376;2024-01-25T09:56:07;13.00;10.00;5.33
72307;PMS5003;60257;42.638;23.376;2024-01-25T09:58:09;12.00;8.33;5.00
72307;PMS5003;60257;42.638;23.376;2024-01-25T10:00:12;9.00;9.00;5.00
72307;PMS5003;60257;42.638;23.376;2024-01-25T10:02:13;13.00;12.00;5.00
72307;PMS5003;60257;42.638;23.376;2024-01-25T10:04:13;11.67;9.67;4.67
72307;PMS5003;60257;42.638;23.376;2024-01-25T10:06:14;11.00;9.67;4.00
72307;PMS5003;60257;42.638;23.376;2024-01-25T10:08:16;9.00;9.00;4.33
72307;PMS5003;60257;42.638;23.376;2024-01-25T10:10:16;9.67;8.00;3.67
72307;PMS5003;60257;42.638;23.376;2024-01-25T10:12:17;10.67;9.33;5.33
72307;PMS5003;60257;42.638;23.376;2024-01-25T10:14:17;11.33;10.33;6.00
72307;PMS5003;60257;42.638;23.376;2024-01-25T10:16:18;8.67;8.67;5.00
72307;PMS5003;60257;42.638;23.376;2024-01-25T10:18:19;14.33;12.33;6.00
72307;PMS5003;60257;42.638;23.376;2024-01-25T10:20:20;12.67;11.67;6.00
72307;PMS5003;60257;42.638;23.376;2024-01-25T10:22:24;15.33;13.00;6.00
72307;PMS5003;60257;42.638;23.376;2024-01-25T10:24:25;10.67;9.00;3.67
72307;PMS5003;60257;42.638;23.376;2024-01-25T10:26:28;14.00;13.67;9.00
72307;PMS5003;60257;42.638;23.376;2024-01-25T10:28:29;17.33;12.00;6.00
72307;PMS5003;60257;42.638;23.376;2024-01-25T10:30:31;18.33;15.33;11.00
72307;PMS5003;60257;42.638;23.376;2024-01-25T10:32:33;13.33;11.67;6.33
72307;PMS5003;60257;42.638;23.376;2024-01-25T10:34:36;11.67;10.67;5.33
72307;PMS5003;60257;42.638;23.376;2024-01-25T10:36:36;11.33;11.00;6.33
72307;PMS5003;60257;42.638;23.376;2024-01-25T10:38:38;10.00;10.00;6.00
72307;PMS5003;60257;42.638;23.376;2024-01-25T10:40:38;12.00;9.00;2.33
72307;PMS5003;60257;42.638;23.376;2024-01-25T10:42:40;17.00;11.00;6.00
72307;PMS5003;60257;42.638;23.376;2024-01-25T10:44:41;11.67;10.33;5.67
72307;PMS5003;60257;42.638;23.376;2024-01-25T10:46:42;17.33;14.00;7.33
72307;PMS5003;60257;42.638;23.376;2024-01-25T10:48:46;13.00;9.67;6.00
72307;PMS5003;60257;42.638;23.376;2024-01-25T10:50:48;12.00;10.00;5.00
72307;PMS5003;60257;42.638;23.376;2024-01-25T10:52:48;12.67;11.33;7.67
72307;PMS5003;60257;42.638;23.376;2024-01-25T10:54:49;11.33;10.00;5.00
72307;PMS5003;60257;42.638;23.376;2024-01-25T10:56:50;12.67;11.00;6.00
72307;PMS5003;60257;42.638;23.376;2024-01-25T10:58:52;14.00;13.00;7.00
72307;PMS5003;60257;42.638;23.376;2024-01-25T11:00:56;16.67;15.00;9.33
72307;PMS5003;60257;42.638;23.376;2024-01-25T11:02:58;14.00;13.00;8.33
72307;PMS5003;60257;42.638;23.376;2024-01-25T11:05:00;16.67;11.67;7.67
72307;PMS5003;60257;42.638;23.376;2024-01-25T11:07:07;14.00;12.00;8.33
72307;PMS5003;60257;42.638;23.376;2024-01-25T11:09:18;10.00;8.00;3.00
72307;PMS5003;60257;42.638;23.376;2024-01-25T11:11:19;13.67;12.00;6.33
72307;PMS5003;60257;42.638;23.376;2024-01-25T11:13:23;11.00;7.33;3.00
72307;PMS5003;60257;42.638;23.376;2024-01-25T11:15:36;15.67;13.00;7.33
72307;PMS5003;60257;42.638;23.376;2024-01-25T11:17:37;10.67;9.00;5.00
72307;PMS5003;60257;42.638;23.376;2024-01-25T11:19:37;12.00;10.00;6.00
72307;PMS5003;60257;42.638;23.376;2024-01-25T11:21:42;9.00;8.00;4.00
72307;PMS5003;60257;42.638;23.376;2024-01-25T11:23:43;13.00;9.67;5.33